Terminal Aerodrome Forecast
Issued by NWS

Home | Current Version | Previous Version | Text Only | Print | Product List | Glossary On
Versions: 1 2 3 4 5 6 7 8 9 10 11 12 13 14 15 16 17
000
FTUS43 KLSX 221720
TAFCPS
TAF
KCPS 221720Z 2218/2318 21006KT P6SM FEW200
     FM230000 16003KT P6SM FEW200
     FM230900 00000KT 6SM BR FEW200
      TEMPO 2309/2312 4SM BR
     FM231300 22006KT P6SM FEW200=

USA.gov is the U.S. government's official web portal to all federal, state and local government web resources and services.